← Previous June 18, 2024 7:30 AM

FTUS43 KFGF 171747
TAFTVF
TAF
KTVF 171747Z 1718/1818 VRB05KT P6SM FEW030 SCT200
     FM172100 11009KT P6SM BKN080
     FM180400 11009KT P6SM BKN030
     FM180600 10009KT 4SM SHRA VCTS OVC010CB
     FM181200 36011KT P6SM OVC008=